Time;durP1;ratioP1;P1;durP2;ratioP2;P2;SDS_P1;SDS_P2;PMS_P1;PMS_P2;Temp;Humidity;BMP_temperature;BMP_pressure;BME280_temperature;BME280_humidity;BME280_pressure;Samples;Min_cycle;Max_cycle;Signal;HPM_P1;HPM_P2
2022/12/12 00:00:26;;;;;;;39.95;21.48;;;;;;;-0.75;100.00;100888.38;5226376;28;20033;-74
2022/12/12 00:02:58;;;;;;;37.17;20.27;;;;;;;-0.92;100.00;100892.34;5226753;28;20084;-73
2022/12/12 00:05:29;;;;;;;40.80;21.55;;;;;;;-0.96;100.00;100897.69;5222033;28;20040;-73
2022/12/12 00:08:00;;;;;;;37.13;20.63;;;;;;;-1.01;100.00;100903.94;5225362;28;20049;-73
2022/12/12 00:10:32;;;;;;;40.03;21.83;;;;;;;-1.07;100.00;100898.88;5228269;28;20641;-73
2022/12/12 00:13:04;;;;;;;35.88;19.52;;;;;;;-1.10;100.00;100901.56;5227702;28;20098;-73
2022/12/12 00:15:35;;;;;;;40.63;20.58;;;;;;;-1.11;100.00;100901.59;5228220;28;20034;-73
2022/12/12 00:18:06;;;;;;;37.03;20.95;;;;;;;-1.19;100.00;100896.56;5223112;28;21057;-73
2022/12/12 00:20:38;;;;;;;36.40;20.52;;;;;;;-1.28;100.00;100900.31;5224981;28;20048;-73
2022/12/12 00:23:09;;;;;;;40.88;22.25;;;;;;;-1.34;100.00;100904.81;5227528;28;20032;-73
2022/12/12 00:25:40;;;;;;;35.90;20.10;;;;;;;-1.43;100.00;100903.31;5228752;28;20376;-73
2022/12/12 00:28:11;;;;;;;37.25;20.33;;;;;;;-1.47;100.00;100893.84;5223027;28;20037;-73
2022/12/12 00:30:43;;;;;;;37.10;20.88;;;;;;;-1.55;100.00;100903.63;5243082;28;20029;-73
2022/12/12 00:33:14;;;;;;;36.58;21.48;;;;;;;-1.59;100.00;100906.34;5224225;28;20033;-73
2022/12/12 00:35:52;;;;;;;37.58;19.92;;;;;;;-1.66;100.00;100898.69;5223887;28;20060;-73
2022/12/12 00:38:24;;;;;;;39.17;20.95;;;;;;;-1.70;100.00;100904.88;5225147;28;20029;-73
2022/12/12 00:40:57;;;;;;;39.92;20.75;;;;;;;-1.66;100.00;100903.91;5227706;28;20033;-72
2022/12/12 00:43:28;;;;;;;37.80;20.55;;;;;;;-1.74;100.00;100911.09;5225085;28;20038;-72
2022/12/12 00:46:00;;;;;;;43.10;21.20;;;;;;;-1.77;100.00;100914.63;5227421;28;20044;-73
2022/12/12 00:48:32;;;;;;;41.67;21.52;;;;;;;-1.74;100.00;100917.19;5225673;28;20033;-73
2022/12/12 00:51:08;;;;;;;37.33;20.65;;;;;;;-1.79;100.00;100913.81;5224472;28;20648;-73
2022/12/12 00:53:40;;;;;;;41.08;21.40;;;;;;;-1.80;100.00;100912.97;5225454;28;20052;-73
2022/12/12 00:56:14;;;;;;;38.15;21.55;;;;;;;-1.78;100.00;100911.16;5227046;28;20057;-72
2022/12/12 00:58:46;;;;;;;37.85;21.35;;;;;;;-1.80;100.00;100914.72;5222582;28;20076;-73
2022/12/12 01:01:23;;;;;;;40.35;21.40;;;;;;;-1.82;100.00;100921.75;5224116;28;20495;-73
2022/12/12 01:03:54;;;;;;;38.63;21.42;;;;;;;-1.86;100.00;100918.34;5224684;28;20029;-72
2022/12/12 01:06:27;;;;;;;39.00;20.10;;;;;;;-1.91;100.00;100924.56;5224324;28;20029;-73
2022/12/12 01:08:58;;;;;;;39.40;20.67;;;;;;;-1.93;100.00;100921.13;5225829;28;20494;-73
2022/12/12 01:11:30;;;;;;;38.70;21.02;;;;;;;-1.94;100.00;100928.09;5225048;28;20037;-73
2022/12/12 01:14:01;;;;;;;40.33;21.02;;;;;;;-2.01;100.00;100929.16;5222085;28;20040;-74
2022/12/12 01:16:32;;;;;;;38.33;20.33;;;;;;;-1.98;100.00;100927.31;5227270;28;20025;-74
2022/12/12 01:19:04;;;;;;;38.08;19.73;;;;;;;-2.04;100.00;100927.47;5222535;28;20034;-74
2022/12/12 01:21:35;;;;;;;38.83;20.88;;;;;;;-2.00;100.00;100931.72;5226986;28;20032;-73
2022/12/12 01:24:07;;;;;;;42.80;21.27;;;;;;;-2.03;100.00;100933.56;5225018;28;20058;-73
2022/12/12 01:26:38;;;;;;;38.33;20.75;;;;;;;-2.10;100.00;100945.91;5223107;28;20450;-73
2022/12/12 01:29:09;;;;;;;40.35;20.95;;;;;;;-2.10;100.00;100942.44;5223982;28;20044;-73
2022/12/12 01:31:41;;;;;;;40.65;21.23;;;;;;;-2.11;100.00;100945.94;5223789;28;20049;-73
2022/12/12 01:34:12;;;;;;;38.63;20.58;;;;;;;-2.17;100.00;100947.81;5222097;28;20057;-73
2022/12/12 01:36:43;;;;;;;44.47;22.35;;;;;;;-2.17;100.00;100950.41;5224145;28;20029;-73
2022/12/12 01:39:15;;;;;;;42.75;20.95;;;;;;;-2.19;100.00;100948.72;5222084;28;20037;-73
2022/12/12 01:41:46;;;;;;;36.40;19.52;;;;;;;-2.23;100.00;100944.47;5226434;28;20492;-73
2022/12/12 01:44:41;;;;;;;41.47;21.00;;;;;;;-2.22;100.00;100954.03;5223807;28;20043;-73
2022/12/12 01:47:15;;;;;;;38.72;20.77;;;;;;;-2.31;100.00;100946.38;5224747;28;20418;-73
2022/12/12 01:49:50;;;;;;;41.17;20.55;;;;;;;-2.34;100.00;100951.66;5223192;28;20034;-73
2022/12/12 01:52:23;;;;;;;;;;;;;;;-2.28;100.00;100949.78;5224727;28;20087;-73
2022/12/12 01:55:03;;;;;;;38.50;20.53;;;;;;;-2.40;100.00;100948.31;5221262;28;19991;-73
2022/12/12 01:57:43;;;;;;;45.25;21.40;;;;;;;-2.42;100.00;100954.44;5222955;28;20056;-73
2022/12/12 02:00:15;;;;;;;40.97;19.73;;;;;;;-2.51;100.00;100957.25;5224960;28;20144;-72
2022/12/12 02:02:47;;;;;;;39.35;20.25;;;;;;;-2.42;100.00;100962.28;5222915;28;20045;-73
2022/12/12 02:05:21;;;;;;;39.90;20.83;;;;;;;-2.49;100.00;100960.69;5225022;28;20033;-73
2022/12/12 02:07:53;;;;;;;38.20;20.23;;;;;;;-2.52;100.00;100961.59;5223947;28;20480;-73
2022/12/12 02:10:24;;;;;;;38.72;19.10;;;;;;;-2.53;100.00;100962.53;5223070;28;20037;-74
2022/12/12 02:13:02;;;;;;;43.07;20.50;;;;;;;-2.58;100.00;100966.97;5223629;28;20081;-73
2022/12/12 02:16:13;;;;;;;40.00;20.53;;;;;;;-2.51;100.00;100958.13;5223874;28;20061;-73
2022/12/12 02:18:53;;;;;;;39.10;20.83;;;;;;;-2.64;100.00;100956.66;5226330;28;20060;-73
2022/12/12 02:21:40;;;;;;;42.70;21.00;;;;;;;-2.63;100.00;100964.47;5228954;28;20055;-72
2022/12/12 02:24:46;;;;;;;35.83;19.75;;;;;;;-2.63;100.00;100967.06;5228725;28;20033;-72
2022/12/12 02:27:52;;;;;;;41.47;21.60;;;;;;;-2.63;100.00;100971.41;5227394;28;20396;-73
2022/12/12 02:30:35;;;;;;;44.55;21.65;;;;;;;-2.64;100.00;100969.72;5226981;28;20065;-72
2022/12/12 02:33:15;;;;;;;41.30;20.58;;;;;;;-2.68;100.00;100978.50;5228157;28;20596;-73
2022/12/12 02:36:00;;;;;;;37.07;19.90;;;;;;;-2.71;100.00;100970.72;5221279;28;21558;-72
2022/12/12 02:38:46;;;;;;;;;;;;;;;-2.70;100.00;100977.63;5226188;28;20575;-72
2022/12/12 02:41:26;;;;;;;;;;;;;;;-2.72;100.00;100974.19;5224526;28;20299;-72
2022/12/12 02:44:06;;;;;;;47.87;21.27;;;;;;;-2.84;100.00;100965.75;5225558;28;20242;-72
2022/12/12 02:46:42;;;;;;;42.37;20.67;;;;;;;-2.85;100.00;100973.59;5226453;28;20108;-72
2022/12/12 02:49:24;;;;;;;38.00;19.97;;;;;;;-2.87;100.00;100972.78;5220987;28;20584;-73
2022/12/12 02:51:56;;;;;;;43.63;22.30;;;;;;;-2.89;100.00;100966.72;5224263;28;20099;-72
2022/12/12 02:54:28;;;;;;;39.70;19.83;;;;;;;-2.88;100.00;100973.66;5225615;28;20312;-72
2022/12/12 02:57:00;;;;;;;40.27;21.60;;;;;;;-2.93;100.00;100973.75;5227314;28;20132;-72
2022/12/12 02:59:37;;;;;;;39.65;20.98;;;;;;;-2.96;100.00;100977.25;5227887;28;20448;-72
2022/12/12 03:02:14;;;;;;;40.40;20.93;;;;;;;-3.01;100.00;100976.50;5225634;28;20026;-72
2022/12/12 03:08:31;;;;;;;38.03;20.23;;;;;;;-2.98;100.00;100970.34;5230179;28;20490;-72
2022/12/12 03:11:11;;;;;;;39.13;20.13;;;;;;;-2.99;100.00;100972.09;5230251;28;20072;-72
2022/12/12 03:14:01;;;;;;;40.73;20.13;;;;;;;-2.99;100.00;100968.66;5229371;28;20033;-72
2022/12/12 03:16:42;;;;;;;36.75;18.63;;;;;;;-3.08;100.00;100969.66;5228174;28;20472;-72
2022/12/12 03:19:40;;;;;;;40.63;19.30;;;;;;;-3.03;100.00;100973.06;5231414;28;20041;-72
2022/12/12 03:22:30;;;;;;;43.77;20.53;;;;;;;-3.12;100.00;100968.00;5229852;28;20037;-72
2022/12/12 03:25:40;;;;;;;45.10;21.20;;;;;;;-3.11;100.00;100966.25;5225822;28;20144;-72
2022/12/12 03:28:22;;;;;;;42.03;20.30;;;;;;;-3.15;100.00;100961.06;5220124;28;20037;-72
2022/12/12 03:30:56;;;;;;;35.70;19.93;;;;;;;-3.24;100.00;100961.25;5230094;28;20455;-72
2022/12/12 03:33:40;;;;;;;40.13;20.45;;;;;;;-3.21;100.00;100961.19;5222576;28;20060;-72
2022/12/12 03:36:23;;;;;;;41.63;19.73;;;;;;;-3.21;100.00;100962.94;5226116;28;20029;-72
2022/12/12 03:39:00;;;;;;;39.77;19.03;;;;;;;-3.28;100.00;100956.09;5229918;28;20044;-72
2022/12/12 03:41:46;;;;;;;39.83;19.77;;;;;;;-3.29;100.00;100960.47;5234498;28;20036;-72
2022/12/12 03:44:24;;;;;;;40.70;20.83;;;;;;;-3.25;100.00;100969.94;5228080;28;20091;-72
2022/12/12 03:47:24;;;;;;;42.03;20.50;;;;;;;-3.29;100.00;100962.22;5229913;28;20046;-72
2022/12/12 03:49:59;;;;;;;44.07;21.30;;;;;;;-3.33;100.00;100964.00;5227292;28;20060;-71
2022/12/12 03:52:38;;;;;;;42.67;20.07;;;;;;;-3.38;100.00;100973.66;5227474;28;20037;-72
2022/12/12 03:55:21;;;;;;;41.53;20.27;;;;;;;-3.39;100.00;100967.59;5224693;28;20030;-72
2022/12/12 03:58:03;;;;;;;43.63;21.17;;;;;;;-3.39;100.00;100977.16;5229881;28;20144;-72
2022/12/12 04:00:36;;;;;;;45.00;21.93;;;;;;;-3.39;100.00;100962.38;5226274;28;20032;-72
2022/12/12 04:03:28;;;;;;;41.07;20.67;;;;;;;-3.42;100.00;100970.25;5225970;28;20098;-72
2022/12/12 04:06:27;;;;;;;40.57;20.30;;;;;;;-3.45;100.00;100967.69;5231197;28;20079;-72
2022/12/12 04:14:51;;;;;;;40.20;20.03;;;;;;;-3.53;100.00;100974.75;5230849;28;20525;-72
2022/12/12 04:17:32;;;;;;;40.67;20.57;;;;;;;-3.55;100.00;100974.81;5228539;28;20033;-72
2022/12/12 04:23:24;;;;;;;39.90;19.63;;;;;;;-3.54;100.00;100978.28;5226962;28;20073;-72
2022/12/12 04:26:38;;;;;;;46.93;21.17;;;;;;;-3.52;100.00;100978.25;5225204;28;20026;-72
2022/12/12 04:29:29;;;;;;;41.63;19.27;;;;;;;-3.59;100.00;100983.53;5218846;28;20052;-72
2022/12/12 04:32:22;;;;;;;43.90;21.07;;;;;;;-3.64;100.00;100992.34;5228702;28;20037;-72
2022/12/12 04:35:05;;;;;;;40.93;19.43;;;;;;;-3.62;100.00;100986.22;5223861;28;20215;-72
2022/12/12 04:37:57;;;;;;;39.33;19.87;;;;;;;-3.67;100.00;100992.41;5231059;28;20399;-72
2022/12/12 04:40:31;;;;;;;43.17;20.77;;;;;;;-3.72;100.00;100995.09;5228811;28;20106;-72
2022/12/12 04:43:10;;;;;;;38.20;19.45;;;;;;;-3.75;100.00;101001.19;5230624;28;20030;-72
2022/12/12 04:45:50;;;;;;;43.27;20.67;;;;;;;-3.77;100.00;101007.31;5231413;28;20025;-72
2022/12/12 04:48:29;;;;;;;42.00;20.37;;;;;;;-3.80;100.00;101009.97;5226931;28;20043;-72
2022/12/12 04:51:04;;;;;;;42.40;19.97;;;;;;;-3.73;100.00;101002.91;5228905;28;20562;-72
2022/12/12 04:53:42;;;;;;;45.57;21.30;;;;;;;-3.83;100.00;101003.06;5247435;28;20632;-72
2022/12/12 04:56:19;;;;;;;43.83;20.60;;;;;;;-3.86;100.00;101002.22;5226451;28;20426;-72
2022/12/12 04:58:50;;;;;;;41.37;19.97;;;;;;;-3.88;100.00;101004.00;5228243;28;20037;-72
2022/12/12 05:01:27;;;;;;;42.97;20.60;;;;;;;-3.90;100.00;100998.81;5229495;28;20055;-72
2022/12/12 05:04:12;;;;;;;43.60;19.77;;;;;;;-3.90;100.00;101005.78;5223558;28;20426;-72
2022/12/12 05:06:49;;;;;;;42.07;20.13;;;;;;;-3.92;100.00;101002.31;5223006;28;20541;-72
2022/12/12 05:09:20;;;;;;;40.87;19.63;;;;;;;-3.90;100.00;101001.41;5225581;28;20045;-71
2022/12/12 05:11:52;;;;;;;43.63;19.57;;;;;;;-3.96;100.00;100993.69;5224656;28;20037;-72
2022/12/12 05:14:23;;;;;;;40.23;19.17;;;;;;;-4.00;100.00;100999.81;5227818;28;20047;-72
2022/12/12 05:17:00;;;;;;;49.03;21.60;;;;;;;-4.02;100.00;100996.38;5228127;28;20514;-72
2022/12/12 05:19:32;;;;;;;40.17;20.10;;;;;;;-4.08;100.00;100997.31;5223020;28;20331;-72
2022/12/12 05:22:03;;;;;;;42.10;20.53;;;;;;;-4.09;100.00;101005.16;5229513;28;20037;-71
2022/12/12 05:24:34;;;;;;;41.27;19.93;;;;;;;-4.10;100.00;101000.81;5229118;28;20029;-71
2022/12/12 05:27:06;;;;;;;38.47;18.97;;;;;;;-4.14;100.00;101005.22;5227007;28;20642;-72
2022/12/12 05:29:37;;;;;;;42.80;20.30;;;;;;;-4.14;100.00;101000.88;5242017;28;20127;-72
2022/12/12 05:32:08;;;;;;;39.70;18.43;;;;;;;-4.18;100.00;101003.53;5226997;28;20037;-71
2022/12/12 05:34:40;;;;;;;40.27;20.03;;;;;;;-4.13;100.00;101001.72;5226919;28;20033;-71
2022/12/12 05:37:11;;;;;;;42.73;19.43;;;;;;;-4.16;100.00;100996.53;5230478;28;20053;-71
2022/12/12 05:39:42;;;;;;;37.70;19.13;;;;;;;-4.17;100.00;101008.72;5222799;28;20029;-71
2022/12/12 05:42:14;;;;;;;40.37;18.23;;;;;;;-4.23;100.00;101005.34;5229843;28;20167;-71
2022/12/12 05:44:45;;;;;;;42.63;20.73;;;;;;;-4.17;100.00;101010.47;5229222;28;20036;-71
2022/12/12 05:47:17;;;;;;;40.50;19.40;;;;;;;-4.18;100.00;101017.44;5227747;28;20059;-72
2022/12/12 05:49:49;;;;;;;40.43;18.83;;;;;;;-4.17;100.00;101013.06;5228956;28;20346;-72
2022/12/12 05:52:20;;;;;;;36.53;18.57;;;;;;;-4.25;100.00;101012.31;5228257;28;20250;-72
2022/12/12 05:54:51;;;;;;;40.77;19.23;;;;;;;-4.22;100.00;101020.06;5228999;28;20029;-71
2022/12/12 05:57:23;;;;;;;39.63;19.93;;;;;;;-4.21;100.00;101014.00;5231616;28;20160;-72
2022/12/12 05:59:55;;;;;;;40.70;18.67;;;;;;;-4.27;100.00;101020.16;5227520;28;20132;-71
2022/12/12 06:02:26;;;;;;;43.30;19.60;;;;;;;-4.25;100.00;101021.00;5226094;28;20087;-72
2022/12/12 06:04:58;;;;;;;39.80;18.47;;;;;;;-4.34;100.00;101015.88;5226154;28;20025;-71
2022/12/12 06:07:29;;;;;;;42.60;18.20;;;;;;;-4.28;100.00;101022.78;5225951;28;20091;-72
2022/12/12 06:10:00;;;;;;;42.63;19.13;;;;;;;-4.36;100.00;101028.94;5229756;28;20027;-72
2022/12/12 06:12:32;;;;;;;41.03;19.13;;;;;;;-4.37;100.00;101026.38;5228093;28;20033;-72
2022/12/12 06:15:04;;;;;;;39.77;18.90;;;;;;;-4.31;100.00;101028.00;5232755;28;20037;-72
2022/12/12 06:17:35;;;;;;;38.87;18.53;;;;;;;-4.29;100.00;101021.06;5229941;28;20033;-71
2022/12/12 06:20:07;;;;;;;41.97;19.73;;;;;;;-4.36;100.00;101021.09;5225374;28;20373;-72
2022/12/12 06:22:41;;;;;;;41.60;18.77;;;;;;;-4.38;100.00;101035.03;5241661;28;20088;-72
2022/12/12 06:25:13;;;;;;;38.40;18.53;;;;;;;-4.42;100.00;101033.38;5229202;28;20493;-71
2022/12/12 06:27:44;;;;;;;38.63;17.47;;;;;;;-4.41;100.00;101029.84;5227022;28;20043;-71
2022/12/12 06:30:15;;;;;;;41.30;18.40;;;;;;;-4.38;100.00;101037.66;5225006;28;20053;-71
2022/12/12 06:32:47;;;;;;;44.90;18.47;;;;;;;-4.43;100.00;101031.63;5228105;28;20124;-71
2022/12/12 06:35:18;;;;;;;44.40;18.37;;;;;;;-4.40;100.00;101031.59;5230001;28;20121;-72
2022/12/12 06:37:49;;;;;;;39.23;17.43;;;;;;;-4.45;100.00;101029.06;5234904;28;20395;-71
2022/12/12 06:40:21;;;;;;;37.40;16.70;;;;;;;-4.45;100.00;101033.38;5226403;28;20107;-71
2022/12/12 06:42:52;;;;;;;41.10;18.20;;;;;;;-4.42;100.00;101029.00;5229971;28;20029;-71
2022/12/12 06:45:23;;;;;;;40.80;18.40;;;;;;;-4.42;100.00;101039.41;5234544;28;20037;-71
2022/12/12 06:47:55;;;;;;;44.63;19.20;;;;;;;-4.42;100.00;101039.41;5241536;28;20155;-71
2022/12/12 06:50:26;;;;;;;43.80;17.43;;;;;;;-4.46;100.00;101044.69;5234428;28;20091;-72
2022/12/12 06:52:57;;;;;;;44.73;18.63;;;;;;;-4.42;100.00;101036.81;5231591;28;20037;-71
2022/12/12 06:55:29;;;;;;;45.50;17.33;;;;;;;-4.48;100.00;101046.47;5232068;28;20553;-71
2022/12/12 06:58:00;;;;;;;41.33;18.47;;;;;;;-4.42;100.00;101054.19;5233342;28;20510;-71
2022/12/12 07:00:31;;;;;;;42.47;18.20;;;;;;;-4.55;100.00;101053.47;5236144;28;20032;-71
2022/12/12 07:03:03;;;;;;;38.90;17.30;;;;;;;-4.51;100.00;101049.09;5230402;28;20031;-71
2022/12/12 07:05:34;;;;;;;49.00;18.40;;;;;;;-4.56;100.00;101052.59;5235609;28;20549;-71
2022/12/12 07:08:06;;;;;;;48.73;17.87;;;;;;;-4.54;100.00;101050.84;5248765;28;20098;-71
2022/12/12 07:10:37;;;;;;;42.10;17.43;;;;;;;-4.54;100.00;101050.84;5232006;28;20038;-71
2022/12/12 07:13:09;;;;;;;41.17;18.50;;;;;;;-4.57;100.00;101061.28;5236028;28;20057;-71
2022/12/12 07:15:46;;;;;;;42.73;18.10;;;;;;;-4.59;100.00;101065.66;5234175;28;20112;-72
2022/12/12 07:18:18;;;;;;;39.70;17.60;;;;;;;-4.61;100.00;101062.19;5229510;28;20037;-71
2022/12/12 07:20:49;;;;;;;37.97;16.60;;;;;;;-4.58;100.00;101066.53;5233469;28;20026;-73
2022/12/12 07:23:20;;;;;;;40.50;17.13;;;;;;;-4.50;100.00;101069.91;5233918;28;20423;-71
2022/12/12 07:25:52;;;;;;;39.33;16.83;;;;;;;-4.57;100.00;101073.44;5237706;28;20018;-71
2022/12/12 07:28:23;;;;;;;38.43;17.00;;;;;;;-4.57;100.00;101071.69;5236386;28;20081;-72
2022/12/12 07:30:55;;;;;;;42.43;17.23;;;;;;;-4.61;100.00;101077.81;5232144;28;20029;-71
2022/12/12 07:33:26;;;;;;;43.13;16.80;;;;;;;-4.55;100.00;101079.50;5230476;28;20597;-71
2022/12/12 07:35:58;;;;;;;41.97;17.43;;;;;;;-4.63;100.00;101081.31;5233930;28;20048;-72
2022/12/12 07:38:30;;;;;;;43.17;18.93;;;;;;;-4.67;100.00;101080.50;5233467;28;20033;-72
2022/12/12 07:41:07;;;;;;;38.00;16.57;;;;;;;-4.68;100.00;101085.69;5232950;28;20103;-71
2022/12/12 07:43:41;;;;;;;45.27;19.80;;;;;;;-4.69;100.00;101090.06;5234399;28;20091;-71
2022/12/12 07:46:18;;;;;;;43.65;18.30;;;;;;;-4.64;100.00;101088.28;5237117;28;20104;-71
2022/12/12 07:48:51;;;;;;;44.17;18.87;;;;;;;-4.57;100.00;101096.88;5231927;28;20048;-70
2022/12/12 07:51:22;;;;;;;45.67;17.40;;;;;;;-4.53;100.00;101096.81;5233551;28;20064;-72
2022/12/12 07:53:54;;;;;;;42.00;17.17;;;;;;;-4.47;100.00;101098.50;5235209;28;20117;-71
2022/12/12 07:56:25;;;;;;;43.60;17.50;;;;;;;-4.50;100.00;101095.94;5240933;28;20047;-70
2022/12/12 07:58:56;;;;;;;40.70;17.63;;;;;;;-4.45;100.00;101096.78;5226245;28;20033;-71
2022/12/12 08:01:29;;;;;;;36.83;16.60;;;;;;;-4.49;100.00;101104.59;5232487;28;20036;-70
2022/12/12 08:04:00;;;;;;;46.47;18.17;;;;;;;-4.48;100.00;101108.94;5230436;28;20041;-71
2022/12/12 08:06:31;;;;;;;41.77;18.10;;;;;;;-4.45;100.00;101112.41;5233514;28;20029;-71
2022/12/12 08:09:03;;;;;;;42.50;17.37;;;;;;;-4.39;100.00;101124.47;5231246;28;20029;-71
2022/12/12 08:11:34;;;;;;;45.20;17.50;;;;;;;-4.40;100.00;101121.00;5229857;28;20026;-71
2022/12/12 08:14:07;;;;;;;41.43;17.13;;;;;;;-4.45;100.00;101116.72;5233047;28;20048;-71
2022/12/12 08:16:38;;;;;;;39.53;17.23;;;;;;;-4.44;100.00;101123.66;5248894;28;20124;-70
2022/12/12 08:19:10;;;;;;;44.70;17.53;;;;;;;-4.49;100.00;101123.69;5229908;28;20037;-71
2022/12/12 08:21:43;;;;;;;41.43;17.63;;;;;;;-4.46;100.00;101125.41;5235347;28;20499;-71
2022/12/12 08:24:15;;;;;;;42.60;17.37;;;;;;;-4.51;100.00;101125.44;5231016;28;20598;-71
2022/12/12 08:26:49;;;;;;;43.60;16.97;;;;;;;-4.51;100.00;101122.00;5231030;28;20033;-70
2022/12/12 08:29:20;;;;;;;31.70;13.13;;;;;;;-4.51;100.00;101117.63;5245917;28;20349;-70
2022/12/12 08:31:52;;;;;;;43.47;16.37;;;;;;;-4.50;100.00;101127.19;5234996;28;20037;-70
2022/12/12 08:34:23;;;;;;;47.13;18.60;;;;;;;-4.49;100.00;101120.22;5242776;28;20033;-71
2022/12/12 08:36:54;;;;;;;40.10;16.83;;;;;;;-4.53;100.00;101128.06;5235205;28;20727;-73
2022/12/12 08:39:26;;;;;;;41.73;17.60;;;;;;;-4.48;100.00;101130.63;5235506;28;20040;-71
2022/12/12 08:41:59;;;;;;;40.57;18.43;;;;;;;-4.46;100.00;101130.63;5228557;28;20120;-72
2022/12/12 08:44:30;;;;;;;42.00;17.43;;;;;;;-4.53;100.00;101133.28;5234353;28;20036;-71
2022/12/12 08:47:01;;;;;;;39.50;16.93;;;;;;;-4.48;100.00;101127.19;5232271;28;20073;-72
2022/12/12 08:49:33;;;;;;;42.73;16.83;;;;;;;-4.43;100.00;101126.25;5230888;28;20053;-72
2022/12/12 08:52:08;;;;;;;39.60;16.40;;;;;;;-4.43;100.00;101130.59;5228874;28;20523;-72
2022/12/12 08:54:40;;;;;;;41.33;15.83;;;;;;;-4.42;100.00;101117.56;5230673;28;20466;-71
2022/12/12 08:57:11;;;;;;;38.70;17.00;;;;;;;-4.43;100.00;101133.19;5229424;28;20085;-71
2022/12/12 08:59:42;;;;;;;42.63;16.43;;;;;;;-4.46;100.00;101134.09;5230775;28;20037;-72
2022/12/12 09:02:14;;;;;;;42.83;16.53;;;;;;;-4.38;100.00;101136.63;5234707;28;20033;-71
2022/12/12 09:04:45;;;;;;;46.07;17.10;;;;;;;-4.31;100.00;101142.59;5223522;28;20033;-72
2022/12/12 09:07:16;;;;;;;42.87;16.77;;;;;;;-4.30;100.00;101144.34;5231358;28;20380;-71
2022/12/12 09:09:48;;;;;;;42.30;16.30;;;;;;;-4.34;100.00;101139.16;5232105;28;20033;-71
2022/12/12 09:12:19;;;;;;;41.50;16.20;;;;;;;-4.24;100.00;101139.06;5232562;28;20514;-71
2022/12/12 09:14:50;;;;;;;41.57;16.20;;;;;;;-4.27;100.00;101136.50;5229782;28;20053;-71
2022/12/12 09:17:21;;;;;;;43.50;17.17;;;;;;;-4.25;100.00;101150.38;5224690;28;20034;-71
2022/12/12 09:19:53;;;;;;;40.03;15.77;;;;;;;-4.18;100.00;101152.03;5239222;28;20028;-70
2022/12/12 09:22:24;;;;;;;42.93;17.57;;;;;;;-4.15;100.00;101139.84;5227977;28;20399;-71
2022/12/12 09:24:55;;;;;;;39.97;15.73;;;;;;;-4.10;100.00;101141.50;5229369;28;20826;-71
2022/12/12 09:27:27;;;;;;;40.23;16.70;;;;;;;-4.15;100.00;101150.25;5242311;28;20491;-72
2022/12/12 09:29:58;;;;;;;40.43;15.83;;;;;;;-4.10;100.00;101147.63;5231494;28;20041;-72
2022/12/12 09:32:29;;;;;;;45.70;16.63;;;;;;;-4.13;100.00;101143.28;5236413;28;20483;-71
2022/12/12 09:35:01;;;;;;;43.07;15.53;;;;;;;-4.03;100.00;101148.41;5233102;28;20033;-71
2022/12/12 09:37:32;;;;;;;40.67;15.70;;;;;;;-4.02;100.00;101137.09;5227470;28;20540;-71
2022/12/12 09:40:04;;;;;;;40.30;15.30;;;;;;;-3.99;100.00;101139.66;5232050;28;20036;-72
2022/12/12 09:42:45;;;;;;;40.60;17.50;;;;;;;-3.96;100.00;101140.47;5230448;28;20040;-72
2022/12/12 09:45:17;;;;;;;37.50;15.67;;;;;;;-3.98;100.00;101139.63;5234386;28;20033;-72
2022/12/12 09:47:54;;;;;;;38.63;15.30;;;;;;;-3.93;100.00;101137.00;5231920;28;20041;-72
2022/12/12 09:50:36;;;;;;;40.13;15.33;;;;;;;-3.92;100.00;101143.91;5232022;28;20037;-71
2022/12/12 09:53:19;;;;;;;40.27;15.87;;;;;;;-3.91;100.00;101132.63;5227213;28;20037;-71
2022/12/12 09:56:05;;;;;;;41.70;15.93;;;;;;;-3.88;100.00;101135.19;5225971;28;20129;-71
2022/12/12 09:58:47;;;;;;;39.90;15.07;;;;;;;-3.83;100.00;101128.19;5223471;28;20045;-72
2022/12/12 10:01:27;;;;;;;36.93;15.03;;;;;;;-3.80;100.00;101127.25;5223656;28;20057;-72
2022/12/12 10:04:33;;;;;;;41.57;17.47;;;;;;;-3.72;100.00;101124.56;5230297;28;20037;-75
2022/12/12 10:07:31;;;;;;;40.13;16.43;;;;;;;-3.65;100.00;101128.81;5225824;28;20044;-75
2022/12/12 10:10:20;;;;;;;42.43;16.60;;;;;;;-3.60;100.00;101133.09;5232768;28;20947;-75
2022/12/12 10:12:54;;;;;;;40.07;16.23;;;;;;;-3.54;100.00;101129.53;5237401;28;20028;-76
2022/12/12 10:15:36;;;;;;;38.23;16.77;;;;;;;-3.56;100.00;101132.16;5235595;28;20074;-75
2022/12/12 10:18:23;;;;;;;39.63;15.97;;;;;;;-3.50;100.00;101128.59;5233962;28;20091;-76
2022/12/12 10:21:05;;;;;;;39.30;16.23;;;;;;;-3.44;100.00;101125.91;5232456;28;20033;-76
2022/12/12 10:23:47;;;;;;;40.67;16.00;;;;;;;-3.41;100.00;101130.25;5232941;28;20033;-76
2022/12/12 10:26:26;;;;;;;38.17;16.33;;;;;;;-3.41;100.00;101122.41;5229917;28;20033;-76
2022/12/12 10:29:12;;;;;;;38.87;16.03;;;;;;;-3.32;100.00;101127.47;5234822;28;20029;-76
2022/12/12 10:32:03;;;;;;;40.10;16.40;;;;;;;-3.32;100.00;101126.63;5237162;28;20029;-76
2022/12/12 10:35:15;;;;;;;40.03;15.27;;;;;;;-3.32;100.00;101124.88;5232621;28;20025;-76
2022/12/12 10:38:08;;;;;;;38.23;15.57;;;;;;;-3.26;100.00;101121.31;5235194;28;20109;-76
2022/12/12 10:41:03;;;;;;;34.97;15.40;;;;;;;-3.14;100.00;101115.91;5230934;28;20119;-76
2022/12/12 10:43:34;;;;;;;;;;;;;;;-3.17;100.00;101106.38;5234222;28;20594;-76
2022/12/12 10:46:28;;;;;;;39.88;14.93;;;;;;;-3.14;100.00;101110.69;5234419;28;20011;-77
2022/12/12 10:49:00;;;;;;;35.72;15.55;;;;;;;-3.03;100.00;101107.91;5234544;28;20036;-77
2022/12/12 10:51:31;;;;;;;39.13;15.53;;;;;;;-2.97;100.00;101105.22;5231963;28;20399;-77
2022/12/12 10:54:29;;;;;;;38.00;15.53;;;;;;;-2.98;100.00;101116.53;5233310;28;20086;-77
2022/12/12 10:57:19;;;;;;;33.43;13.87;;;;;;;-2.98;100.00;101106.09;5232960;28;20048;-77
2022/12/12 10:59:56;;;;;;;37.33;15.80;;;;;;;-2.88;100.00;101112.00;5235906;28;20028;-77
2022/12/12 11:02:36;;;;;;;36.50;15.23;;;;;;;-2.91;100.00;101115.53;5237946;28;20029;-77
2022/12/12 11:05:15;;;;;;;38.47;15.40;;;;;;;-2.85;100.00;101119.81;5237234;28;20499;-77
2022/12/12 11:07:58;;;;;;;35.27;14.23;;;;;;;-2.78;100.00;101110.97;5233768;28;20021;-77
2022/12/12 11:10:34;;;;;;;31.30;14.40;;;;;;;-2.69;100.00;101107.34;5230817;28;21044;-77
2022/12/12 11:13:09;;;;;;;32.87;14.90;;;;;;;-2.69;100.00;101102.13;5235378;28;20045;-78
2022/12/12 11:15:49;;;;;;;37.60;15.52;;;;;;;-2.70;100.00;101100.38;5232879;28;20021;-78
2022/12/12 11:18:22;;;;;;;35.28;15.13;;;;;;;-2.63;100.00;101102.88;5236755;28;20116;-78
2022/12/12 11:21:12;;;;;;;34.70;14.00;;;;;;;-2.61;100.00;101095.88;5230220;28;20040;-78
2022/12/12 11:23:52;;;;;;;31.57;14.73;;;;;;;-2.59;100.00;101093.22;5233763;28;20163;-78
2022/12/12 11:26:26;;;;;;;33.00;14.30;;;;;;;-2.50;100.00;101097.44;5235477;28;20036;-77
2022/12/12 11:29:00;;;;;;;34.38;14.43;;;;;;;-2.48;100.00;101096.50;5233726;28;20029;-78
2022/12/12 11:31:33;;;;;;;;;;;;;;;-2.49;100.00;101100.03;5235508;28;20029;-78
2022/12/12 11:34:05;;;;;;;30.37;13.27;;;;;;;-2.46;100.00;101099.09;5233550;28;19953;-78
2022/12/12 11:36:39;;;;;;;33.13;14.23;;;;;;;-2.34;100.00;101090.16;5231084;28;20105;-77
2022/12/12 11:39:20;;;;;;;30.83;13.38;;;;;;;-2.43;100.00;101081.59;5234535;28;20029;-78
2022/12/12 11:42:15;;;;;;;31.40;15.30;;;;;;;-2.34;100.00;101090.16;5234607;28;20033;-78
2022/12/12 11:44:58;;;;;;;31.30;13.05;;;;;;;-2.30;100.00;101078.75;5231960;28;20033;-78
2022/12/12 11:47:38;;;;;;;33.55;14.13;;;;;;;-2.19;100.00;101085.50;5231275;28;20033;-78
2022/12/12 11:50:28;;;;;;;30.73;14.07;;;;;;;-2.20;100.00;101077.69;5230404;28;20639;-78
2022/12/12 11:53:02;;;;;;;27.08;12.50;;;;;;;-2.19;100.00;101082.91;5234093;28;20029;-78
2022/12/12 11:55:51;;;;;;;31.00;13.75;;;;;;;-2.17;100.00;101075.00;5234746;28;20491;-78